createdAt,value
2018-05-21T00:00:53.395Z,98102.91
2018-05-21T00:01:57.931Z,98110.06
2018-05-21T00:03:03.037Z,98109.49
2018-05-21T00:04:08.340Z,98109.43
2018-05-21T00:05:13.291Z,98107.02
2018-05-21T00:06:17.835Z,98103.27
2018-05-21T00:07:22.416Z,98101.23
2018-05-21T00:08:27.054Z,98101.98
2018-05-21T00:09:32.363Z,98100.38
2018-05-21T00:10:38.107Z,98095.42
2018-05-21T00:11:43.484Z,98102.63
2018-05-21T00:12:49.336Z,98101.36
2018-05-21T00:13:55.398Z,98090.70
2018-05-21T00:15:00.285Z,98097.16
2018-05-21T00:16:06.298Z,98092.43
2018-05-21T00:17:11.597Z,98103.48
2018-05-21T00:18:17.120Z,98098.18
2018-05-21T00:19:22.201Z,98097.14
2018-05-21T00:20:26.948Z,98095.54
2018-05-21T00:21:31.578Z,98087.30
2018-05-21T00:22:36.143Z,98093.29
2018-05-21T00:23:40.717Z,98093.69
2018-05-21T00:24:45.699Z,98091.38
2018-05-21T00:25:50.477Z,98083.55
2018-05-21T00:26:54.999Z,98084.25
2018-05-21T00:27:59.724Z,98090.24
2018-05-21T00:29:04.699Z,98086.61
2018-05-21T00:30:09.772Z,98087.13
2018-05-21T00:31:15.429Z,98081.41
2018-05-21T00:32:21.245Z,98083.50
2018-05-21T00:33:26.385Z,98084.94
2018-05-21T00:34:32.387Z,98070.93
2018-05-21T00:35:37.424Z,98085.39
2018-05-21T00:36:42.140Z,98079.58
2018-05-21T00:37:47.186Z,98077.16
2018-05-21T00:38:51.746Z,98079.35
2018-05-21T00:39:56.298Z,98086.98
2018-05-21T00:41:00.827Z,98086.30
2018-05-21T00:42:05.352Z,98082.89
2018-05-21T00:43:09.848Z,98087.83
2018-05-21T00:44:14.974Z,98088.80
2018-05-21T00:45:19.595Z,98083.03
2018-05-21T00:46:25.113Z,98083.56
2018-05-21T00:47:29.962Z,98075.14
2018-05-21T00:48:35.841Z,98077.10
2018-05-21T00:49:41.467Z,98072.70
2018-05-21T00:50:47.098Z,98081.42
2018-05-21T00:51:52.387Z,98076.44
2018-05-21T00:52:58.210Z,98081.63
2018-05-21T00:54:03.459Z,98073.50
2018-05-21T00:55:12.229Z,98070.56
2018-05-21T00:56:17.909Z,98075.23
2018-05-21T00:57:22.609Z,98072.30
2018-05-21T00:58:27.480Z,98073.04
2018-05-21T00:59:32.526Z,98068.48
2018-05-21T01:00:38.315Z,98067.83
2018-05-21T01:01:43.758Z,98059.75
2018-05-21T01:02:49.849Z,98070.56
2018-05-21T01:03:54.817Z,98065.49
2018-05-21T01:05:00.901Z,98066.84
2018-05-21T01:06:06.904Z,98066.21
2018-05-21T01:07:13.402Z,98064.95
2018-05-21T01:08:18.803Z,98066.16
2018-05-21T01:09:24.651Z,98068.03
2018-05-21T01:10:30.215Z,98066.59
2018-05-21T01:11:35.468Z,98066.36
2018-05-21T01:12:40.543Z,98067.05
2018-05-21T01:13:45.635Z,98068.14
2018-05-21T01:14:52.028Z,98062.33
2018-05-21T01:15:57.607Z,98059.84
2018-05-21T01:17:04.203Z,98055.47
2018-05-21T01:18:09.546Z,98061.11
2018-05-21T01:19:15.423Z,98057.20
2018-05-21T01:20:21.442Z,98061.92
2018-05-21T01:21:26.317Z,98058.92
2018-05-21T01:22:32.090Z,98058.98
2018-05-21T01:23:37.274Z,98052.94
2018-05-21T01:24:42.284Z,98059.86
2018-05-21T01:25:47.093Z,98062.51
2018-05-21T01:26:52.427Z,98056.86
2018-05-21T01:27:57.299Z,98053.98
2018-05-21T01:29:02.721Z,98055.42
2018-05-21T01:30:07.262Z,98053.46
2018-05-21T01:31:11.798Z,98046.58
2018-05-21T01:32:16.478Z,98049.86
2018-05-21T01:33:21.396Z,98045.86
2018-05-21T01:34:25.877Z,98047.84
2018-05-21T01:35:31.571Z,98043.06
2018-05-21T01:36:37.089Z,98047.99
2018-05-21T01:37:42.008Z,98044.70
2018-05-21T01:38:46.883Z,98051.70
2018-05-21T01:39:52.796Z,98052.11
2018-05-21T01:40:59.892Z,98045.80
2018-05-21T01:42:06.409Z,98045.52
2018-05-21T01:43:11.246Z,98044.13
2018-05-21T01:44:16.253Z,98041.13
2018-05-21T01:45:21.994Z,98037.51
2018-05-21T01:46:27.815Z,98043.27
2018-05-21T01:47:33.654Z,98037.85
2018-05-21T01:48:39.019Z,98040.39
2018-05-21T01:49:44.090Z,98035.37
2018-05-21T01:50:48.925Z,98042.98
2018-05-21T01:51:53.622Z,98037.97
2018-05-21T01:52:58.185Z,98033.42
2018-05-21T01:54:02.816Z,98033.30
2018-05-21T01:55:07.809Z,98018.22
2018-05-21T01:56:12.398Z,98034.40
2018-05-21T01:57:16.984Z,98023.80
2018-05-21T01:58:21.934Z,98030.25
2018-05-21T01:59:27.188Z,98031.92
2018-05-21T02:00:32.567Z,98036.47
2018-05-21T02:01:39.135Z,98027.55
2018-05-21T02:02:44.981Z,98031.17
2018-05-21T02:03:51.364Z,98027.48
2018-05-21T02:04:57.333Z,98029.64
2018-05-21T02:06:03.183Z,98031.66
2018-05-21T02:07:08.362Z,98023.83
2018-05-21T02:08:13.996Z,98018.19
2018-05-21T02:09:19.606Z,98024.69
2018-05-21T02:10:25.003Z,98026.30
2018-05-21T02:11:30.568Z,98022.16
2018-05-21T02:12:36.018Z,98025.38
2018-05-21T02:13:42.049Z,98023.59
2018-05-21T02:14:48.820Z,98014.55
2018-05-21T02:15:54.561Z,98014.61
2018-05-21T02:16:59.570Z,98019.97
2018-05-21T02:18:05.651Z,98014.50
2018-05-21T02:19:11.780Z,98017.14
2018-05-21T02:20:17.617Z,98021.75
2018-05-21T02:21:23.161Z,98013.75
2018-05-21T02:22:29.448Z,98005.86
2018-05-21T02:23:34.378Z,98007.13
2018-05-21T02:24:39.711Z,98004.94
2018-05-21T02:25:45.701Z,98010.00
2018-05-21T02:26:52.745Z,98016.23
2018-05-21T02:27:58.300Z,98014.96
2018-05-21T02:29:04.632Z,98005.52
2018-05-21T02:30:10.320Z,98009.03
2018-05-21T02:31:15.821Z,98005.86
2018-05-21T02:32:20.909Z,98009.98
2018-05-21T02:33:28.234Z,98007.13
2018-05-21T02:34:32.892Z,98017.58
2018-05-21T02:35:38.116Z,98010.64
2018-05-21T02:36:44.324Z,98006.78
2018-05-21T02:37:50.130Z,98012.17
2018-05-21T02:38:55.709Z,98021.58
2018-05-21T02:40:00.925Z,98014.79
2018-05-21T02:41:06.411Z,98014.30
2018-05-21T02:42:11.690Z,98014.38
2018-05-21T02:43:16.866Z,98020.89
2018-05-21T02:44:23.059Z,98011.05
2018-05-21T02:45:29.439Z,98016.91
2018-05-21T02:46:35.112Z,98014.09
2018-05-21T02:47:41.291Z,98020.48
2018-05-21T02:48:47.205Z,98021.58
2018-05-21T02:49:52.831Z,98024.69
2018-05-21T02:50:57.717Z,98003.20
2018-05-21T02:52:08.752Z,98022.38
2018-05-21T02:53:13.202Z,98021.75
2018-05-21T02:54:17.752Z,98015.98
2018-05-21T02:55:22.647Z,98017.08
2018-05-21T02:56:27.733Z,98027.67
2018-05-21T02:57:32.853Z,98021.88
2018-05-21T02:58:38.383Z,98009.56
2018-05-21T02:59:44.248Z,98012.48
2018-05-21T03:00:49.446Z,98017.66
2018-05-21T03:01:55.222Z,98014.61
2018-05-21T03:03:00.007Z,98021.80
2018-05-21T03:04:04.535Z,98015.03
2018-05-21T03:05:09.438Z,98016.81
2018-05-21T03:06:14.131Z,98014.45
2018-05-21T03:07:18.649Z,98016.29
2018-05-21T03:08:23.111Z,98006.56
2018-05-21T03:09:27.631Z,98013.94
2018-05-21T03:10:32.277Z,98007.54
2018-05-21T03:11:37.809Z,98003.91
2018-05-21T03:12:42.870Z,98002.36
2018-05-21T03:13:47.971Z,98015.66
2018-05-21T03:14:53.017Z,98009.55
2018-05-21T03:15:57.897Z,98009.14
2018-05-21T03:17:02.767Z,98004.54
2018-05-21T03:18:07.731Z,98008.91
2018-05-21T03:19:12.250Z,98008.74
2018-05-21T03:20:16.746Z,98008.10
2018-05-21T03:21:21.256Z,98006.27
2018-05-21T03:22:25.762Z,98013.30
2018-05-21T03:23:30.495Z,98008.22
2018-05-21T03:24:35.800Z,98012.61
2018-05-21T03:25:42.125Z,97999.50
2018-05-21T03:26:47.712Z,98000.23
2018-05-21T03:27:52.684Z,98001.91
2018-05-21T03:28:57.463Z,98013.70
2018-05-21T03:30:02.052Z,98004.89
2018-05-21T03:31:06.983Z,98002.36
2018-05-21T03:32:11.463Z,98002.06
2018-05-21T03:33:15.991Z,97996.48
2018-05-21T03:34:20.530Z,98002.13
2018-05-21T03:35:25.914Z,98008.17
2018-05-21T03:36:31.512Z,98003.74
2018-05-21T03:37:37.052Z,98003.39
2018-05-21T03:38:42.361Z,98002.07
2018-05-21T03:39:47.254Z,97996.03
2018-05-21T03:40:52.707Z,98003.05
2018-05-21T03:41:57.717Z,98005.75
2018-05-21T03:43:03.093Z,98008.75
2018-05-21T03:44:08.873Z,98009.72
2018-05-21T03:45:14.202Z,98013.47
2018-05-21T03:46:19.297Z,98010.70
2018-05-21T03:47:23.845Z,98010.64
2018-05-21T03:48:28.402Z,98012.14
2018-05-21T03:49:32.917Z,98007.14
2018-05-21T03:50:37.813Z,98002.02
2018-05-21T03:51:42.312Z,98000.98
2018-05-21T03:52:47.666Z,98002.69
2018-05-21T03:53:52.477Z,98000.88
2018-05-21T03:54:58.504Z,98008.77
2018-05-21T03:56:03.727Z,98009.94
2018-05-21T03:57:08.731Z,98004.96
2018-05-21T03:58:17.471Z,97994.41
2018-05-21T04:01:28.218Z,98004.07
2018-05-21T04:02:38.422Z,98000.88
2018-05-21T04:03:47.283Z,98004.73
2018-05-21T04:04:51.830Z,98009.72
2018-05-21T04:05:56.354Z,98003.92
2018-05-21T04:07:01.108Z,98007.95
2018-05-21T04:08:06.701Z,98005.64
2018-05-21T04:09:13.251Z,98014.95
2018-05-21T04:10:18.491Z,98011.73
2018-05-21T04:11:25.054Z,98004.20
2018-05-21T04:12:30.434Z,98008.05
2018-05-21T04:13:35.970Z,98008.41
2018-05-21T04:14:41.651Z,98015.41
2018-05-21T04:15:48.378Z,98012.59
2018-05-21T04:16:54.779Z,98008.56
2018-05-21T04:17:59.953Z,98011.68
2018-05-21T04:19:05.385Z,98014.05
2018-05-21T04:20:11.238Z,98010.64
2018-05-21T04:21:16.564Z,98014.56
2018-05-21T04:22:22.953Z,98017.67
2018-05-21T04:23:28.181Z,98016.98
2018-05-21T04:24:33.816Z,98016.81
2018-05-21T04:25:39.472Z,98018.48
2018-05-21T04:26:45.341Z,98021.71
2018-05-21T04:27:51.270Z,98015.38
2018-05-21T04:28:56.906Z,98022.62
2018-05-21T04:30:02.697Z,98020.91
2018-05-21T04:31:08.549Z,98023.59
2018-05-21T04:32:15.876Z,98020.84
2018-05-21T04:33:20.929Z,98024.85
2018-05-21T04:34:25.438Z,98025.97
2018-05-21T04:35:31.577Z,98020.04
2018-05-21T04:36:36.116Z,98021.13
2018-05-21T04:37:40.582Z,98022.27
2018-05-21T04:38:45.038Z,98022.55
2018-05-21T04:39:49.538Z,98017.60
2018-05-21T04:40:54.137Z,98019.10
2018-05-21T04:41:59.131Z,98013.75
2018-05-21T04:43:03.743Z,98012.42
2018-05-21T04:44:08.330Z,98009.31
2018-05-21T04:45:12.875Z,98017.26
2018-05-21T04:46:17.515Z,98009.55
2018-05-21T04:47:23.138Z,98009.43
2018-05-21T04:48:29.065Z,98004.77
2018-05-21T04:49:33.645Z,98004.88
2018-05-21T04:50:38.226Z,98009.55
2018-05-21T04:51:42.823Z,98010.58
2018-05-21T04:52:47.408Z,98003.91
2018-05-21T04:53:52.030Z,98014.73
2018-05-21T04:54:56.950Z,98011.05
2018-05-21T04:56:01.540Z,98011.94
2018-05-21T04:57:06.118Z,98010.38
2018-05-21T04:58:10.693Z,98011.56
2018-05-21T04:59:15.289Z,98014.73
2018-05-21T05:00:19.850Z,98008.66
2018-05-21T05:01:24.441Z,98010.33
2018-05-21T05:02:29.077Z,98015.50
2018-05-21T05:03:33.697Z,98012.39
2018-05-21T05:04:38.240Z,98018.21
2018-05-21T05:05:42.884Z,98013.77
2018-05-21T05:06:48.280Z,98009.97
2018-05-21T05:07:53.311Z,98007.38
2018-05-21T05:08:57.880Z,98008.70
2018-05-21T05:10:03.027Z,98003.23
2018-05-21T05:11:07.595Z,98005.05
2018-05-21T05:12:12.221Z,98007.02
2018-05-21T05:13:16.781Z,98000.46
2018-05-21T05:14:21.812Z,98006.97
2018-05-21T05:15:26.396Z,98005.06
2018-05-21T05:16:30.973Z,98004.89
2018-05-21T05:17:35.550Z,98002.98
2018-05-21T05:18:40.214Z,98005.97
2018-05-21T05:19:44.762Z,98002.77
2018-05-21T05:20:49.716Z,98003.79
2018-05-21T05:21:54.311Z,98006.28
2018-05-21T05:23:00.278Z,98005.30
2018-05-21T05:24:04.885Z,98008.92
2018-05-21T05:25:09.520Z,98004.55
2018-05-21T05:26:14.180Z,97998.83
2018-05-21T05:27:20.061Z,97998.06
2018-05-21T05:28:24.570Z,98006.72
2018-05-21T05:29:29.037Z,98002.56
2018-05-21T05:30:33.550Z,97994.44
2018-05-21T05:31:38.068Z,97998.27
2018-05-21T05:32:42.556Z,97993.45
2018-05-21T05:33:47.582Z,97997.31
2018-05-21T05:34:52.157Z,97998.28
2018-05-21T05:35:56.769Z,97995.00
2018-05-21T05:37:01.386Z,98004.59
2018-05-21T05:38:05.951Z,97997.32
2018-05-21T05:39:10.646Z,97996.31
2018-05-21T05:40:15.600Z,97997.70
2018-05-21T05:41:20.251Z,97991.27
2018-05-21T05:42:24.828Z,97997.14
2018-05-21T05:43:29.425Z,97998.27
2018-05-21T05:44:34.014Z,97997.37
2018-05-21T05:45:38.697Z,98001.91
2018-05-21T05:46:43.759Z,97999.50
2018-05-21T05:47:48.350Z,97992.88
2018-05-21T05:48:53.048Z,97998.37
2018-05-21T05:49:57.625Z,97996.77
2018-05-21T05:51:02.267Z,98001.44
2018-05-21T05:52:06.814Z,97993.67
2018-05-21T05:53:12.881Z,97998.59
2018-05-21T05:54:17.461Z,97994.66
2018-05-21T05:55:23.000Z,97989.98
2018-05-21T05:56:27.668Z,97982.80
2018-05-21T05:57:32.217Z,97988.72
2018-05-21T05:58:36.791Z,97982.50
2018-05-21T05:59:41.782Z,97983.39
2018-05-21T06:00:46.374Z,97988.34
2018-05-21T06:01:50.976Z,97984.59
2018-05-21T06:02:56.559Z,97981.44
2018-05-21T06:04:01.150Z,97977.69
2018-05-21T06:05:05.778Z,97977.13
2018-05-21T06:06:12.084Z,97977.75
2018-05-21T06:07:17.173Z,97971.42
2018-05-21T06:08:21.805Z,97968.36
2018-05-21T06:09:26.405Z,97978.00
2018-05-21T06:10:30.965Z,97964.14
2018-05-21T06:11:35.604Z,97969.30
2018-05-21T06:12:40.453Z,97968.38
2018-05-21T06:13:45.027Z,97967.84
2018-05-21T06:14:49.575Z,97974.81
2018-05-21T06:15:54.046Z,97974.04
2018-05-21T06:16:58.658Z,97974.58
2018-05-21T06:18:03.279Z,97975.38
2018-05-21T06:19:08.138Z,97977.80
2018-05-21T06:20:12.748Z,97968.57
2018-05-21T06:21:17.381Z,97970.80
2018-05-21T06:22:23.078Z,97976.64
2018-05-21T06:23:28.182Z,97970.39
2018-05-21T06:24:32.805Z,97976.23
2018-05-21T06:25:37.726Z,97982.14
2018-05-21T06:26:42.990Z,97978.77
2018-05-21T06:27:47.489Z,97965.51
2018-05-21T06:28:52.110Z,97971.40
2018-05-21T06:29:56.732Z,97973.08
2018-05-21T06:31:01.345Z,97973.95
2018-05-21T06:32:06.285Z,97975.19
2018-05-21T06:33:10.872Z,97969.90
2018-05-21T06:34:15.498Z,97968.49
2018-05-21T06:35:20.100Z,97976.39
2018-05-21T06:36:24.737Z,97984.97
2018-05-21T06:37:29.610Z,97980.81
2018-05-21T06:38:34.530Z,97970.06
2018-05-21T06:39:39.077Z,97966.59
2018-05-21T06:40:43.655Z,97972.91
2018-05-21T06:41:48.227Z,97966.85
2018-05-21T06:42:52.832Z,97972.04
2018-05-21T06:43:57.393Z,97968.78
2018-05-21T06:45:02.311Z,97965.16
2018-05-21T06:46:07.294Z,97965.57
2018-05-21T06:47:11.884Z,97962.16
2018-05-21T06:48:17.229Z,97954.99
2018-05-21T06:49:21.862Z,97958.78
2018-05-21T06:50:26.368Z,97955.70
2018-05-21T06:51:31.281Z,97958.52
2018-05-21T06:52:35.881Z,97954.45
2018-05-21T06:53:41.188Z,97956.13
2018-05-21T06:54:45.743Z,97956.45
2018-05-21T06:55:50.295Z,97953.84
2018-05-21T06:56:54.787Z,97946.99
2018-05-21T06:57:59.646Z,97952.63
2018-05-21T06:59:04.375Z,97956.33
2018-05-21T07:00:08.848Z,97956.14
2018-05-21T07:01:13.542Z,97953.78
2018-05-21T07:02:18.085Z,97961.08
2018-05-21T07:03:22.687Z,97955.16
2018-05-21T07:04:27.689Z,97953.48
2018-05-21T07:05:32.135Z,97947.95
2018-05-21T07:06:36.689Z,97945.97
2018-05-21T07:07:41.280Z,97956.77
2018-05-21T07:08:47.505Z,97950.22
2018-05-21T07:09:52.090Z,97951.59
2018-05-21T07:10:57.058Z,97949.70
2018-05-21T07:12:02.473Z,97944.23
2018-05-21T07:13:07.043Z,97948.52
2018-05-21T07:14:11.617Z,97943.42
2018-05-21T07:15:16.226Z,97944.21
2018-05-21T07:16:21.204Z,97947.33
2018-05-21T07:17:26.202Z,97937.53
2018-05-21T07:18:30.748Z,97938.12
2018-05-21T07:19:35.321Z,97937.61
2018-05-21T07:20:39.938Z,97934.87
2018-05-21T07:21:44.548Z,97934.23
2018-05-21T07:22:49.248Z,97934.98
2018-05-21T07:23:53.932Z,97928.45
2018-05-21T07:24:58.486Z,97937.87
2018-05-21T07:26:04.460Z,97932.03
2018-05-21T07:27:09.348Z,97933.86
2018-05-21T07:28:13.827Z,97927.80
2018-05-21T07:29:18.649Z,97924.92
2018-05-21T07:30:23.196Z,97919.61
2018-05-21T07:31:27.837Z,97922.88
2018-05-21T07:32:32.432Z,97924.27
2018-05-21T07:33:37.000Z,97919.02
2018-05-21T07:34:42.052Z,97923.07
2018-05-21T07:35:46.610Z,97914.72
2018-05-21T07:36:51.119Z,97911.84
2018-05-21T07:37:55.793Z,97912.86
2018-05-21T07:39:00.303Z,97917.56
2018-05-21T07:40:04.946Z,97911.59
2018-05-21T07:41:09.900Z,97906.41
2018-05-21T07:42:14.558Z,97910.13
2018-05-21T07:43:19.159Z,97906.20
2018-05-21T07:44:23.693Z,97901.16
2018-05-21T07:45:28.269Z,97912.31
2018-05-21T07:46:34.212Z,97909.44
2018-05-21T07:47:39.769Z,97910.30
2018-05-21T07:48:44.454Z,97910.98
2018-05-21T07:49:49.237Z,97910.22
2018-05-21T07:50:54.111Z,97914.88
2018-05-21T07:51:58.709Z,97908.16
2018-05-21T07:53:03.311Z,97900.84
2018-05-21T07:54:08.171Z,97908.16
2018-05-21T07:55:12.701Z,97901.40
2018-05-21T07:56:17.368Z,97895.75
2018-05-21T07:57:22.006Z,97908.91
2018-05-21T07:58:26.999Z,97908.95
2018-05-21T07:59:31.554Z,97904.21
2018-05-21T08:00:36.518Z,97911.42
2018-05-21T08:01:41.159Z,97902.59
2018-05-21T08:02:45.711Z,97910.66
2018-05-21T08:03:50.301Z,97904.83
2018-05-21T08:04:54.904Z,97904.46
2018-05-21T08:05:59.465Z,97901.66
2018-05-21T08:07:04.369Z,97908.87
2018-05-21T08:08:08.965Z,97898.37
2018-05-21T08:09:13.570Z,97904.64
2018-05-21T08:10:18.386Z,97903.69
2018-05-21T08:11:22.964Z,97895.88
2018-05-21T08:12:27.506Z,97904.71
2018-05-21T08:13:32.374Z,97901.53
2018-05-21T08:14:36.987Z,97903.11
2018-05-21T08:15:41.608Z,97891.08
2018-05-21T08:16:46.224Z,97905.28
2018-05-21T08:17:51.021Z,97897.77
2018-05-21T08:18:55.685Z,97900.66
2018-05-21T08:20:00.580Z,97902.94
2018-05-21T08:21:05.162Z,97893.14
2018-05-21T08:22:09.725Z,97891.46
2018-05-21T08:23:14.393Z,97879.94
2018-05-21T08:24:18.976Z,97881.61
2018-05-21T08:25:23.555Z,97882.89
2018-05-21T08:26:28.409Z,97899.45
2018-05-21T08:27:32.995Z,97890.69
2018-05-21T08:28:37.589Z,97897.72
2018-05-21T08:29:42.233Z,97883.72
2018-05-21T08:30:47.825Z,97888.46
2018-05-21T08:31:53.331Z,97893.27
2018-05-21T08:33:00.285Z,97894.42
2018-05-21T08:34:05.879Z,97892.81
2018-05-21T08:35:11.381Z,97879.72
2018-05-21T08:36:17.052Z,97874.47
2018-05-21T08:37:22.601Z,97877.41
2018-05-21T08:38:28.380Z,97883.33
2018-05-21T08:39:34.505Z,97887.23
2018-05-21T08:40:39.984Z,97876.55
2018-05-21T08:41:45.591Z,97881.72
2018-05-21T08:42:51.272Z,97880.53
2018-05-21T08:43:56.637Z,97873.80
2018-05-21T08:45:02.933Z,97869.97
2018-05-21T08:46:08.589Z,97883.32
2018-05-21T08:47:14.209Z,97881.11
2018-05-21T08:48:20.094Z,97880.19
2018-05-21T08:49:25.512Z,97874.91
2018-05-21T08:50:31.019Z,97873.75
2018-05-21T08:51:36.740Z,97880.30
2018-05-21T08:52:42.611Z,97878.41
2018-05-21T08:53:49.032Z,97877.08
2018-05-21T08:54:55.143Z,97876.78
2018-05-21T08:56:00.624Z,97867.39
2018-05-21T08:57:06.109Z,97865.20
2018-05-21T08:58:12.077Z,97863.05
2018-05-21T08:59:17.601Z,97864.68
2018-05-21T09:00:23.177Z,97850.69
2018-05-21T09:01:30.033Z,97867.42
2018-05-21T09:02:35.770Z,97867.31
2018-05-21T09:03:41.391Z,97866.11
2018-05-21T09:04:47.377Z,97855.47
2018-05-21T09:05:53.283Z,97851.15
2018-05-21T09:06:58.813Z,97853.39
2018-05-21T09:08:04.442Z,97858.36
2018-05-21T09:09:09.569Z,97855.83
2018-05-21T09:10:16.421Z,97845.48
2018-05-21T09:11:24.355Z,97855.88
2018-05-21T09:12:30.208Z,97856.39
2018-05-21T09:13:36.637Z,97848.06
2018-05-21T09:14:42.097Z,97845.98
2018-05-21T09:15:47.804Z,97853.11
2018-05-21T09:16:55.207Z,97851.41
2018-05-21T09:18:01.305Z,97852.61
2018-05-21T09:19:06.746Z,97846.73
2018-05-21T09:20:12.329Z,97841.44
2018-05-21T09:21:17.741Z,97846.25
2018-05-21T09:22:23.535Z,97851.53
2018-05-21T09:23:28.840Z,97850.29
2018-05-21T09:24:34.493Z,97844.58
2018-05-21T09:25:39.961Z,97837.69
2018-05-21T09:26:45.374Z,97845.60
2018-05-21T09:27:50.641Z,97836.66
2018-05-21T09:28:56.096Z,97834.03
2018-05-21T09:30:01.523Z,97831.81
2018-05-21T09:31:07.444Z,97831.92
2018-05-21T09:32:14.105Z,97836.88
2018-05-21T09:33:20.183Z,97838.00
2018-05-21T09:34:25.760Z,97821.28
2018-05-21T09:35:31.007Z,97825.84
2018-05-21T09:36:37.305Z,97835.59
2018-05-21T09:37:43.103Z,97845.77
2018-05-21T09:38:48.510Z,97841.04
2018-05-21T09:39:54.649Z,97846.30
2018-05-21T09:41:00.435Z,97830.08
2018-05-21T09:42:05.849Z,97845.44
2018-05-21T09:43:11.385Z,97840.88
2018-05-21T09:44:16.299Z,97838.34
2018-05-21T09:45:20.937Z,97840.72
2018-05-21T09:46:25.608Z,97841.98
2018-05-21T09:47:30.200Z,97832.02
2018-05-21T09:48:34.949Z,97833.62
2018-05-21T09:49:39.858Z,97815.36
2018-05-21T09:50:44.754Z,97822.77
2018-05-21T09:51:49.391Z,97818.27
2018-05-21T09:52:53.973Z,97836.17
2018-05-21T09:53:58.575Z,97829.89
2018-05-21T09:55:03.177Z,97828.48
2018-05-21T09:56:07.918Z,97824.08
2018-05-21T09:57:13.086Z,97831.63
2018-05-21T09:58:17.761Z,97831.66
2018-05-21T09:59:23.328Z,97825.81
2018-05-21T10:00:28.169Z,97821.13
2018-05-21T10:01:32.781Z,97823.28
2018-05-21T10:02:37.455Z,97837.34
2018-05-21T10:03:42.608Z,97824.41
2018-05-21T10:04:47.192Z,97808.27
2018-05-21T10:05:51.778Z,97819.17
2018-05-21T10:06:56.403Z,97821.28
2018-05-21T10:08:01.399Z,97828.08
2018-05-21T10:09:06.566Z,97815.93
2018-05-21T10:10:11.553Z,97802.42
2018-05-21T10:11:16.631Z,97820.34
2018-05-21T10:12:22.169Z,97820.02
2018-05-21T10:13:26.841Z,97817.46
2018-05-21T10:14:31.480Z,97814.74
2018-05-21T10:15:36.112Z,97815.73
2018-05-21T10:16:43.600Z,97812.73
2018-05-21T10:17:48.169Z,97806.54
2018-05-21T10:18:55.871Z,97800.39
2018-05-21T10:20:00.532Z,97807.60
2018-05-21T10:21:05.153Z,97810.49
2018-05-21T10:22:09.730Z,97809.06
2018-05-21T10:23:15.971Z,97798.25
2018-05-21T10:24:20.741Z,97807.40
2018-05-21T10:25:25.965Z,97803.47
2018-05-21T10:26:30.726Z,97788.42
2018-05-21T10:27:35.374Z,97799.06
2018-05-21T10:28:42.467Z,97800.73
2018-05-21T10:29:48.655Z,97810.71
2018-05-21T10:30:53.223Z,97803.34
2018-05-21T10:31:57.806Z,97804.14
2018-05-21T10:33:02.480Z,97795.23
2018-05-21T10:34:07.096Z,97806.02
2018-05-21T10:35:11.704Z,97799.10
2018-05-21T10:36:16.663Z,97805.59
2018-05-21T10:37:21.260Z,97800.00
2018-05-21T10:38:25.856Z,97792.78
2018-05-21T10:39:31.956Z,97796.10
2018-05-21T10:40:39.609Z,97793.06
2018-05-21T10:41:44.214Z,97791.30
2018-05-21T10:42:49.116Z,97783.37
2018-05-21T10:43:53.731Z,97765.52
2018-05-21T10:44:58.372Z,97775.70
2018-05-21T10:46:03.131Z,97790.98
2018-05-21T10:47:07.721Z,97783.88
2018-05-21T10:48:12.362Z,97792.79
2018-05-21T10:49:17.887Z,97785.77
2018-05-21T10:50:22.554Z,97791.09
2018-05-21T10:51:27.242Z,97790.02
2018-05-21T10:52:31.830Z,97792.21
2018-05-21T10:53:36.388Z,97777.86
2018-05-21T10:54:41.002Z,97779.92
2018-05-21T10:55:46.089Z,97789.39
2018-05-21T10:56:50.668Z,97773.94
2018-05-21T10:57:55.286Z,97780.54
2018-05-21T10:58:59.921Z,97791.70
2018-05-21T11:00:04.600Z,97777.36
2018-05-21T11:01:09.749Z,97780.64
2018-05-21T11:02:14.667Z,97786.14
2018-05-21T11:03:19.307Z,97780.09
2018-05-21T11:04:23.968Z,97788.25
2018-05-21T11:05:28.560Z,97766.80
2018-05-21T11:06:33.264Z,97768.92
2018-05-21T11:07:37.830Z,97777.34
2018-05-21T11:08:42.530Z,97775.66
2018-05-21T11:09:47.177Z,97782.44
2018-05-21T11:10:51.954Z,97775.30
2018-05-21T11:11:56.538Z,97778.17
2018-05-21T11:13:01.665Z,97780.54
2018-05-21T11:14:06.647Z,97771.73
2018-05-21T11:15:11.334Z,97769.96
2018-05-21T11:16:16.252Z,97765.59
2018-05-21T11:17:21.028Z,97762.03
2018-05-21T11:18:25.682Z,97770.08
2018-05-21T11:19:31.063Z,97777.86
2018-05-21T11:20:35.720Z,97774.55
2018-05-21T11:21:40.710Z,97766.97
2018-05-21T11:22:45.338Z,97771.33
2018-05-21T11:23:50.962Z,97759.52
2018-05-21T11:24:55.636Z,97767.73
2018-05-21T11:26:00.196Z,97765.61
2018-05-21T11:27:05.534Z,97757.04
2018-05-21T11:28:10.290Z,97767.87
2018-05-21T11:29:15.069Z,97754.03
2018-05-21T11:30:19.736Z,97755.64
2018-05-21T11:31:24.382Z,97755.42
2018-05-21T11:32:29.032Z,97739.47
2018-05-21T11:33:33.916Z,97733.15
2018-05-21T11:34:38.568Z,97737.84
2018-05-21T11:35:43.145Z,97743.28
2018-05-21T11:36:47.770Z,97724.59
2018-05-21T11:37:52.344Z,97753.59
2018-05-21T11:38:56.931Z,97742.77
2018-05-21T11:40:01.865Z,97738.59
2018-05-21T11:41:06.646Z,97718.73
2018-05-21T11:42:11.212Z,97730.08
2018-05-21T11:43:15.853Z,97730.04
2018-05-21T11:44:20.568Z,97731.46
2018-05-21T11:45:25.440Z,97740.11
2018-05-21T11:46:31.533Z,97738.50
2018-05-21T11:47:36.203Z,97747.77
2018-05-21T11:48:40.842Z,97746.77
2018-05-21T11:49:45.843Z,97736.70
2018-05-21T11:50:50.409Z,97737.68
2018-05-21T11:51:55.017Z,97718.75
2018-05-21T11:52:59.962Z,97709.02
2018-05-21T11:54:04.697Z,97708.17
2018-05-21T11:55:09.293Z,97730.75
2018-05-21T11:56:13.986Z,97727.92
2018-05-21T11:57:18.605Z,97721.00
2018-05-21T11:58:23.199Z,97731.41
2018-05-21T11:59:28.229Z,97721.01
2018-05-21T12:00:32.843Z,97716.23
2018-05-21T12:01:38.500Z,97726.71
2018-05-21T12:02:43.188Z,97712.07
2018-05-21T12:03:47.845Z,97712.88
2018-05-21T12:04:52.429Z,97723.27
2018-05-21T12:05:57.208Z,97715.20
2018-05-21T12:07:01.714Z,97720.70
2018-05-21T12:08:06.199Z,97721.84
2018-05-21T12:09:10.720Z,97721.98
2018-05-21T12:10:15.283Z,97711.77
2018-05-21T12:11:20.224Z,97724.86
2018-05-21T12:12:24.864Z,97722.79
2018-05-21T12:13:29.675Z,97723.36
2018-05-21T12:14:34.299Z,97717.55
2018-05-21T12:15:38.909Z,97721.23
2018-05-21T12:16:43.566Z,97726.55
2018-05-21T12:17:48.517Z,97726.80
2018-05-21T12:18:53.120Z,97724.95
2018-05-21T12:19:57.801Z,97721.47
2018-05-21T12:21:02.487Z,97709.73
2018-05-21T12:22:07.120Z,97718.03
2018-05-21T12:23:11.704Z,97709.59
2018-05-21T12:24:17.898Z,97709.80
2018-05-21T12:25:22.584Z,97715.88
2018-05-21T12:26:27.423Z,97711.05
2018-05-21T12:27:32.015Z,97713.23
2018-05-21T12:28:36.647Z,97704.39
2018-05-21T12:29:41.198Z,97711.55
2018-05-21T12:30:47.090Z,97712.19
2018-05-21T12:31:51.653Z,97713.08
2018-05-21T12:32:56.104Z,97708.33
2018-05-21T12:34:00.750Z,97713.31
2018-05-21T12:35:05.261Z,97707.32
2018-05-21T12:36:09.880Z,97697.26
2018-05-21T12:37:14.806Z,97703.80
2018-05-21T12:38:19.400Z,97693.25
2018-05-21T12:39:23.928Z,97695.80
2018-05-21T12:40:28.483Z,97714.75
2018-05-21T12:41:33.204Z,97680.86
2018-05-21T12:42:37.733Z,97696.41
2018-05-21T12:43:42.729Z,97694.80
2018-05-21T12:44:47.225Z,97699.28
2018-05-21T12:45:53.101Z,97701.89
2018-05-21T12:46:57.792Z,97695.69